createdAt,value
2023-04-15T00:00:18.636Z,67.04
2023-04-15T00:01:18.633Z,67.65
2023-04-15T00:02:18.832Z,68.06
2023-04-15T00:03:18.820Z,67.72
2023-04-15T00:04:18.629Z,65.85
2023-04-15T00:05:18.632Z,67.79
2023-04-15T00:06:18.628Z,64.73
2023-04-15T00:07:18.576Z,64.46
2023-04-15T00:08:19.296Z,65.13
2023-04-15T00:09:18.549Z,63.89
2023-04-15T00:10:18.598Z,64.02
2023-04-15T00:11:18.558Z,63.05
2023-04-15T00:12:18.529Z,64.08
2023-04-15T00:13:18.553Z,64.53
2023-04-15T00:14:18.554Z,65.92
2023-04-15T00:15:18.517Z,64.17
2023-04-15T00:16:18.566Z,65.88
2023-04-15T00:17:18.521Z,65.68
2023-04-15T00:18:18.546Z,66.94
2023-04-15T00:19:18.523Z,65.59
2023-04-15T00:20:18.482Z,67.13
2023-04-15T00:21:18.517Z,67.63
2023-04-15T00:22:18.479Z,67.70
2023-04-15T00:23:18.479Z,67.39
2023-04-15T00:24:18.439Z,66.73
2023-04-15T00:25:18.445Z,67.06
2023-04-15T00:26:18.491Z,67.18
2023-04-15T00:27:18.439Z,65.35
2023-04-15T00:28:18.451Z,64.90
2023-04-15T00:29:18.454Z,64.35
2023-04-15T00:30:18.421Z,62.54
2023-04-15T00:31:18.447Z,63.42
2023-04-15T00:32:18.415Z,62.03
2023-04-15T00:33:18.418Z,61.95
2023-04-15T00:34:18.412Z,64.14
2023-04-15T00:35:18.464Z,62.54
2023-04-15T00:36:18.404Z,62.83
2023-04-15T00:37:18.382Z,61.12
2023-04-15T00:38:18.388Z,59.70
2023-04-15T00:39:18.400Z,60.78
2023-04-15T00:40:18.398Z,61.30
2023-04-15T00:41:18.390Z,60.59
2023-04-15T00:42:18.419Z,62.14
2023-04-15T00:43:18.449Z,61.99
2023-04-15T00:44:18.425Z,61.72
2023-04-15T00:45:18.436Z,62.65
2023-04-15T00:46:18.497Z,61.58
2023-04-15T00:47:18.443Z,59.88
2023-04-15T00:48:18.437Z,59.63
2023-04-15T00:49:18.464Z,59.90
2023-04-15T00:50:18.450Z,58.99
2023-04-15T00:51:18.468Z,59.32
2023-04-15T00:52:18.455Z,59.02
2023-04-15T00:53:18.464Z,59.05
2023-04-15T00:54:18.510Z,58.92
2023-04-15T00:55:18.501Z,59.72
2023-04-15T00:56:18.494Z,60.19
2023-04-15T00:57:18.502Z,59.71
2023-04-15T00:58:18.498Z,60.61
2023-04-15T00:59:18.542Z,59.05
2023-04-15T01:00:18.516Z,59.94
2023-04-15T01:01:18.568Z,59.83
2023-04-15T01:02:18.664Z,60.33
2023-04-15T01:03:18.725Z,60.91
2023-04-15T01:04:18.638Z,59.61
2023-04-15T01:05:18.563Z,59.36
2023-04-15T01:06:18.570Z,59.85
2023-04-15T01:07:18.537Z,60.31
2023-04-15T01:08:18.572Z,59.97
2023-04-15T01:09:18.561Z,59.33
2023-04-15T01:10:18.598Z,58.19
2023-04-15T01:11:18.585Z,58.59
2023-04-15T01:12:18.590Z,59.26
2023-04-15T01:13:18.568Z,60.04
2023-04-15T01:14:18.583Z,60.42
2023-04-15T01:15:18.622Z,59.62
2023-04-15T01:16:18.615Z,59.67
2023-04-15T01:17:18.606Z,60.99
2023-04-15T01:18:18.600Z,60.94
2023-04-15T01:19:18.596Z,60.58
2023-04-15T01:20:18.632Z,58.94
2023-04-15T01:21:18.601Z,58.98
2023-04-15T01:22:18.632Z,60.16
2023-04-15T01:23:18.624Z,59.52
2023-04-15T01:24:18.628Z,59.54
2023-04-15T01:25:18.653Z,60.18
2023-04-15T01:26:18.624Z,58.14
2023-04-15T01:27:18.637Z,57.82
2023-04-15T01:28:18.596Z,57.37
2023-04-15T01:29:18.602Z,58.50
2023-04-15T01:30:18.610Z,58.12
2023-04-15T01:31:18.708Z,57.53
2023-04-15T01:32:18.592Z,58.70
2023-04-15T01:33:18.607Z,58.93
2023-04-15T01:34:18.655Z,58.82
2023-04-15T01:35:18.643Z,57.42
2023-04-15T01:36:18.640Z,58.76
2023-04-15T01:37:18.678Z,58.50
2023-04-15T01:38:18.635Z,57.18
2023-04-15T01:39:18.683Z,58.88
2023-04-15T01:40:18.655Z,57.96
2023-04-15T01:41:18.677Z,57.55
2023-04-15T01:42:18.676Z,57.89
2023-04-15T01:43:18.704Z,58.81
2023-04-15T01:44:18.784Z,58.77
2023-04-15T01:45:18.719Z,57.79
2023-04-15T01:46:18.776Z,54.90
2023-04-15T01:47:18.794Z,55.79
2023-04-15T01:48:18.753Z,55.14
2023-04-15T01:49:18.735Z,54.77
2023-04-15T01:50:18.724Z,54.20
2023-04-15T01:51:18.728Z,55.19
2023-04-15T01:52:18.778Z,55.59
2023-04-15T01:53:18.747Z,56.19
2023-04-15T01:54:18.761Z,56.78
2023-04-15T01:55:18.759Z,58.66
2023-04-15T01:56:18.800Z,57.44
2023-04-15T01:57:18.809Z,56.94
2023-04-15T01:58:18.801Z,58.19
2023-04-15T01:59:18.831Z,54.71
2023-04-15T02:00:18.808Z,54.90
2023-04-15T02:01:18.906Z,55.54
2023-04-15T02:02:18.950Z,54.81
2023-04-15T02:03:18.897Z,55.27
2023-04-15T02:04:18.896Z,54.81
2023-04-15T02:05:18.875Z,55.87
2023-04-15T02:06:18.884Z,54.56
2023-04-15T02:07:18.880Z,54.89
2023-04-15T02:08:18.886Z,55.31
2023-04-15T02:09:18.877Z,55.21
2023-04-15T02:10:18.950Z,56.52
2023-04-15T02:11:18.905Z,54.97
2023-04-15T02:12:18.905Z,56.11
2023-04-15T02:13:18.922Z,55.35
2023-04-15T02:14:18.962Z,56.16
2023-04-15T02:15:18.927Z,55.52
2023-04-15T02:16:19.089Z,55.39
2023-04-15T02:17:18.962Z,55.89
2023-04-15T02:18:18.952Z,55.06
2023-04-15T02:19:18.971Z,55.53
2023-04-15T02:20:18.958Z,54.43
2023-04-15T02:21:19.015Z,53.93
2023-04-15T02:22:19.101Z,55.42
2023-04-15T02:23:18.971Z,55.15
2023-04-15T02:24:18.969Z,54.16
2023-04-15T02:25:19.025Z,53.47
2023-04-15T02:26:18.988Z,54.89
2023-04-15T02:27:19.004Z,55.25
2023-04-15T02:28:19.165Z,55.40
2023-04-15T02:29:19.040Z,54.85
2023-04-15T02:30:19.031Z,54.80
2023-04-15T02:31:19.070Z,54.35
2023-04-15T02:32:19.105Z,54.47
2023-04-15T02:33:19.069Z,53.10
2023-04-15T02:34:19.107Z,53.14
2023-04-15T02:35:19.106Z,53.32
2023-04-15T02:36:19.186Z,51.74
2023-04-15T02:37:19.117Z,52.74
2023-04-15T02:38:19.113Z,53.83
2023-04-15T02:39:19.166Z,51.19
2023-04-15T02:40:19.124Z,51.88
2023-04-15T02:41:19.174Z,53.37
2023-04-15T02:42:19.149Z,52.64
2023-04-15T02:43:19.131Z,53.43
2023-04-15T02:44:19.166Z,52.31
2023-04-15T02:45:19.178Z,53.96
2023-04-15T02:46:19.224Z,56.03
2023-04-15T02:47:19.220Z,56.88
2023-04-15T02:48:19.196Z,55.52
2023-04-15T02:49:19.267Z,56.27
2023-04-15T02:50:19.209Z,55.60
2023-04-15T02:51:19.195Z,55.00
2023-04-15T02:52:19.224Z,55.85
2023-04-15T02:53:19.227Z,53.89
2023-04-15T02:54:19.227Z,55.09
2023-04-15T02:55:19.240Z,53.65
2023-04-15T02:56:19.233Z,53.01
2023-04-15T02:57:19.260Z,53.90
2023-04-15T02:58:19.248Z,55.65
2023-04-15T02:59:19.269Z,55.09
2023-04-15T03:00:19.248Z,54.92
2023-04-15T03:01:19.344Z,55.85
2023-04-15T03:02:19.279Z,57.05
2023-04-15T03:03:19.460Z,56.97
2023-04-15T03:04:19.292Z,57.81
2023-04-15T03:05:19.291Z,57.95
2023-04-15T03:06:19.324Z,56.82
2023-04-15T03:07:19.300Z,57.35
2023-04-15T03:08:19.282Z,56.56
2023-04-15T03:09:19.301Z,56.94
2023-04-15T03:10:19.343Z,58.35
2023-04-15T03:11:19.342Z,56.37
2023-04-15T03:12:19.314Z,56.41
2023-04-15T03:13:19.345Z,57.32
2023-04-15T03:14:19.319Z,57.48
2023-04-15T03:15:19.323Z,57.95
2023-04-15T03:16:19.378Z,57.48
2023-04-15T03:17:19.366Z,56.49
2023-04-15T03:18:19.330Z,57.15
2023-04-15T03:19:19.373Z,56.87
2023-04-15T03:20:19.401Z,56.66
2023-04-15T03:21:19.359Z,56.96
2023-04-15T03:22:19.388Z,55.90
2023-04-15T03:23:19.380Z,54.81
2023-04-15T03:24:19.397Z,55.68
2023-04-15T03:25:19.438Z,56.42
2023-04-15T03:26:19.391Z,56.60
2023-04-15T03:27:19.448Z,54.91
2023-04-15T03:28:19.454Z,54.56
2023-04-15T03:29:19.428Z,54.45
2023-04-15T03:30:19.475Z,53.57
2023-04-15T03:31:19.941Z,55.21
2023-04-15T03:32:19.472Z,55.87
2023-04-15T03:33:19.456Z,54.83
2023-04-15T03:34:19.460Z,56.97
2023-04-15T03:35:19.473Z,58.08
2023-04-15T03:36:19.443Z,58.83
2023-04-15T03:37:19.466Z,58.03
2023-04-15T03:38:19.556Z,59.75
2023-04-15T03:39:19.471Z,60.25
2023-04-15T03:40:19.482Z,59.61
2023-04-15T03:41:19.478Z,59.69
2023-04-15T03:42:19.495Z,60.01
2023-04-15T03:43:19.531Z,60.31
2023-04-15T03:44:19.494Z,58.68
2023-04-15T03:45:19.519Z,59.69
2023-04-15T03:46:19.519Z,59.40
2023-04-15T03:47:19.565Z,60.08
2023-04-15T03:48:19.543Z,59.90
2023-04-15T03:49:19.572Z,59.64
2023-04-15T03:50:19.578Z,58.49
2023-04-15T03:51:19.534Z,57.72
2023-04-15T03:52:19.568Z,59.01
2023-04-15T03:53:19.590Z,58.56
2023-04-15T03:54:19.542Z,58.39
2023-04-15T03:55:19.567Z,58.51
2023-04-15T03:56:19.596Z,59.26
2023-04-15T03:57:19.587Z,58.91
2023-04-15T03:58:19.590Z,58.87
2023-04-15T03:59:19.602Z,58.10
2023-04-15T04:00:19.586Z,57.56
2023-04-15T04:01:19.639Z,57.62
2023-04-15T04:02:19.792Z,57.31
2023-04-15T04:03:19.691Z,57.06
2023-04-15T04:04:19.678Z,57.23
2023-04-15T04:05:19.621Z,57.34
2023-04-15T04:06:19.623Z,57.70
2023-04-15T04:07:19.625Z,58.97
2023-04-15T04:08:19.648Z,59.24
2023-04-15T04:09:19.731Z,57.91
2023-04-15T04:10:19.637Z,58.34
2023-04-15T04:11:19.675Z,58.17
2023-04-15T04:12:19.629Z,59.12
2023-04-15T04:13:19.651Z,58.27
2023-04-15T04:14:19.650Z,59.20
2023-04-15T04:15:19.652Z,57.34
2023-04-15T04:16:19.701Z,57.53
2023-04-15T04:17:19.726Z,58.92
2023-04-15T04:18:19.690Z,57.95
2023-04-15T04:19:19.689Z,56.90
2023-04-15T04:20:19.686Z,58.92
2023-04-15T04:21:19.688Z,56.15
2023-04-15T04:22:19.708Z,56.73
2023-04-15T04:23:19.697Z,56.91
2023-04-15T04:24:19.732Z,56.31
2023-04-15T04:25:19.720Z,55.61
2023-04-15T04:26:19.824Z,53.75
2023-04-15T04:27:19.749Z,53.75
2023-04-15T04:28:19.749Z,53.06
2023-04-15T04:29:19.733Z,53.23
2023-04-15T04:30:19.728Z,53.78
2023-04-15T04:31:19.795Z,53.70
2023-04-15T04:32:19.771Z,54.56
2023-04-15T04:33:19.790Z,51.69
2023-04-15T04:34:19.778Z,51.17
2023-04-15T04:35:19.784Z,48.30
2023-04-15T04:36:19.824Z,46.29
2023-04-15T04:37:19.819Z,45.63
2023-04-15T04:38:19.821Z,47.41
2023-04-15T04:39:19.848Z,45.38
2023-04-15T04:40:19.821Z,42.17
2023-04-15T04:41:19.822Z,40.67
2023-04-15T04:42:19.832Z,42.51
2023-04-15T04:43:19.890Z,42.50
2023-04-15T04:44:19.854Z,42.48
2023-04-15T04:45:19.876Z,39.97
2023-04-15T04:46:19.936Z,39.22
2023-04-15T04:47:19.884Z,40.84
2023-04-15T04:48:19.911Z,40.82
2023-04-15T04:49:19.930Z,41.77
2023-04-15T04:50:19.897Z,41.47
2023-04-15T04:51:19.956Z,39.72
2023-04-15T04:52:19.953Z,43.07
2023-04-15T04:53:19.981Z,42.63
2023-04-15T04:54:19.987Z,42.20
2023-04-15T04:55:19.986Z,42.04
2023-04-15T04:56:19.993Z,41.47
2023-04-15T04:57:20.016Z,41.14
2023-04-15T04:58:20.007Z,42.25
2023-04-15T04:59:20.051Z,42.40
2023-04-15T05:00:20.045Z,41.87
2023-04-15T05:01:20.117Z,43.13
2023-04-15T05:02:20.203Z,42.97
2023-04-15T05:03:20.266Z,42.18
2023-04-15T05:04:20.079Z,41.88
2023-04-15T05:05:20.115Z,44.45
2023-04-15T05:06:20.190Z,43.68
2023-04-15T05:07:20.098Z,44.62
2023-04-15T05:08:20.114Z,43.79
2023-04-15T05:09:20.175Z,42.40
2023-04-15T05:10:20.155Z,43.76
2023-04-15T05:11:20.144Z,41.93
2023-04-15T05:12:20.174Z,43.17
2023-04-15T05:13:20.206Z,42.69
2023-04-15T05:14:21.112Z,43.09
2023-04-15T05:15:20.194Z,44.04
2023-04-15T05:16:20.264Z,42.89
2023-04-15T05:17:20.247Z,42.74
2023-04-15T05:18:20.254Z,41.51
2023-04-15T05:19:20.238Z,44.04
2023-04-15T05:20:20.267Z,42.02
2023-04-15T05:21:20.251Z,41.43
2023-04-15T05:22:20.266Z,41.02
2023-04-15T05:23:20.299Z,42.67
2023-04-15T05:24:20.368Z,42.83
2023-04-15T05:25:20.337Z,42.02
2023-04-15T05:26:20.332Z,42.15
2023-04-15T05:27:20.301Z,42.18
2023-04-15T05:28:20.317Z,42.52
2023-04-15T05:29:20.330Z,41.24
2023-04-15T05:30:20.382Z,42.01
2023-04-15T05:31:20.429Z,40.63
2023-04-15T05:32:20.428Z,43.03
2023-04-15T05:33:20.444Z,41.08
2023-04-15T05:34:20.426Z,43.03
2023-04-15T05:35:20.411Z,43.03
2023-04-15T05:36:20.420Z,40.62
2023-04-15T05:37:20.451Z,39.74
2023-04-15T05:38:20.469Z,40.19
2023-04-15T05:39:20.444Z,41.13
2023-04-15T05:40:20.459Z,38.94
2023-04-15T05:41:20.489Z,40.14
2023-04-15T05:42:20.521Z,40.00
2023-04-15T05:43:20.523Z,40.80
2023-04-15T05:44:20.502Z,40.34
2023-04-15T05:45:20.509Z,40.58
2023-04-15T05:46:20.594Z,40.17
2023-04-15T05:47:20.532Z,40.72
2023-04-15T05:48:20.560Z,40.76
2023-04-15T05:49:20.552Z,40.84
2023-04-15T05:50:20.572Z,42.05
2023-04-15T05:51:20.578Z,40.69
2023-04-15T05:52:20.568Z,39.85
2023-04-15T05:53:20.622Z,40.42
2023-04-15T05:54:20.605Z,40.48
2023-04-15T05:55:20.599Z,41.90
2023-04-15T05:56:20.633Z,40.46
2023-04-15T05:57:20.635Z,42.84
2023-04-15T05:58:20.647Z,39.87
2023-04-15T05:59:20.654Z,40.24
2023-04-15T06:00:20.629Z,38.48
2023-04-15T06:01:20.660Z,37.73
2023-04-15T06:02:20.751Z,38.48
2023-04-15T06:03:20.756Z,37.50
2023-04-15T06:04:20.811Z,37.57
2023-04-15T06:05:20.697Z,35.70
2023-04-15T06:06:20.713Z,33.27
2023-04-15T06:07:20.730Z,32.39
2023-04-15T06:08:20.753Z,31.95
2023-04-15T06:09:20.733Z,30.88
2023-04-15T06:10:20.762Z,30.34
2023-04-15T06:11:20.771Z,29.35
2023-04-15T06:12:20.765Z,29.06
2023-04-15T06:13:20.814Z,28.67
2023-04-15T06:14:20.819Z,28.00
2023-04-15T06:15:20.827Z,28.52
2023-04-15T06:16:20.854Z,26.80
2023-04-15T06:17:20.859Z,27.76
2023-04-15T06:18:20.846Z,25.80
2023-04-15T06:19:20.860Z,29.48
2023-04-15T06:20:20.865Z,31.78
2023-04-15T06:21:20.877Z,25.03
2023-04-15T06:22:20.864Z,26.47
2023-04-15T06:23:20.968Z,28.28
2023-04-15T06:24:20.900Z,25.00
2023-04-15T06:25:20.895Z,25.48
2023-04-15T06:26:20.895Z,26.07
2023-04-15T06:27:20.921Z,25.00
2023-04-15T06:28:20.897Z,25.38
2023-04-15T06:29:20.924Z,27.36
2023-04-15T06:30:22.325Z,25.74
2023-04-15T06:31:20.976Z,28.21
2023-04-15T06:32:20.976Z,27.49
2023-04-15T06:33:20.941Z,26.52
2023-04-15T06:34:20.930Z,27.28
2023-04-15T06:35:20.943Z,26.60
2023-04-15T06:36:20.915Z,26.10
2023-04-15T06:37:20.916Z,25.04
2023-04-15T06:38:20.885Z,26.03
2023-04-15T06:39:20.868Z,25.21
2023-04-15T06:40:20.898Z,25.20
2023-04-15T06:41:20.863Z,25.82
2023-04-15T06:42:20.906Z,26.03
2023-04-15T06:43:20.892Z,25.58
2023-04-15T06:44:20.870Z,28.92
2023-04-15T06:45:20.836Z,28.44
2023-04-15T06:46:20.924Z,27.85
2023-04-15T06:47:20.824Z,28.22
2023-04-15T06:48:20.854Z,25.76
2023-04-15T06:49:20.803Z,25.97
2023-04-15T06:50:20.816Z,25.37
2023-04-15T06:51:20.817Z,28.74
2023-04-15T06:52:20.795Z,30.31
2023-04-15T06:53:20.799Z,28.47
2023-04-15T06:54:20.786Z,31.16
2023-04-15T06:55:20.802Z,30.32
2023-04-15T06:56:20.769Z,29.76
2023-04-15T06:57:20.749Z,31.25
2023-04-15T06:58:20.762Z,29.64
2023-04-15T06:59:20.752Z,34.89
2023-04-15T07:00:20.749Z,34.14
2023-04-15T07:01:20.806Z,32.83
2023-04-15T07:02:20.829Z,27.51
2023-04-15T07:03:20.736Z,35.00
2023-04-15T07:04:20.779Z,29.00
2023-04-15T07:05:20.710Z,25.00
2023-04-15T07:06:20.689Z,27.72
2023-04-15T07:07:20.700Z,25.00
2023-04-15T07:08:20.729Z,25.00
2023-04-15T07:09:20.690Z,27.26
2023-04-15T07:10:20.668Z,26.23
2023-04-15T07:11:20.678Z,25.13
2023-04-15T07:12:20.645Z,26.15
2023-04-15T07:13:20.654Z,29.00
2023-04-15T07:14:20.616Z,27.33
2023-04-15T07:15:20.764Z,29.46
2023-04-15T07:16:20.631Z,25.77
2023-04-15T07:17:20.638Z,25.29
2023-04-15T07:18:20.629Z,25.57
2023-04-15T07:19:20.617Z,26.04
2023-04-15T07:20:20.597Z,25.00
2023-04-15T07:21:20.590Z,25.10
2023-04-15T07:22:20.572Z,25.00
2023-04-15T07:23:20.562Z,30.74
2023-04-15T07:24:20.566Z,29.96
2023-04-15T07:25:20.592Z,33.75
2023-04-15T07:26:20.556Z,30.50
2023-04-15T07:27:20.568Z,34.74
2023-04-15T07:28:20.542Z,31.91
2023-04-15T07:29:20.554Z,30.56
2023-04-15T07:30:20.510Z,37.63
2023-04-15T07:31:20.550Z,34.26
2023-04-15T07:32:20.570Z,33.14
2023-04-15T07:33:20.489Z,29.89
2023-04-15T07:34:20.488Z,28.93
2023-04-15T07:35:20.501Z,27.18
2023-04-15T07:36:20.479Z,32.32
2023-04-15T07:37:20.482Z,33.67
2023-04-15T07:38:20.470Z,31.25
2023-04-15T07:39:20.459Z,26.26
2023-04-15T07:40:20.473Z,32.23
2023-04-15T07:41:20.466Z,29.79
2023-04-15T07:42:20.440Z,28.59
2023-04-15T07:43:20.453Z,31.05
2023-04-15T07:44:20.427Z,25.04
2023-04-15T07:45:20.419Z,26.14
2023-04-15T07:46:20.483Z,25.96
2023-04-15T07:47:20.447Z,27.07
2023-04-15T07:48:20.434Z,28.82
2023-04-15T07:49:20.398Z,27.94
2023-04-15T07:50:20.364Z,29.41
2023-04-15T07:51:20.447Z,31.27
2023-04-15T07:52:20.384Z,33.47
2023-04-15T07:53:20.395Z,28.45
2023-04-15T07:54:20.353Z,28.38
2023-04-15T07:55:20.328Z,29.23
2023-04-15T07:56:20.369Z,25.76
2023-04-15T07:57:20.377Z,27.27
2023-04-15T07:58:20.356Z,29.65
2023-04-15T07:59:20.305Z,28.73
2023-04-15T08:00:20.351Z,28.75
2023-04-15T08:01:20.294Z,30.75
2023-04-15T08:02:20.446Z,29.37
2023-04-15T08:03:20.329Z,28.46
2023-04-15T08:04:20.391Z,30.47
2023-04-15T08:05:20.348Z,27.59
2023-04-15T08:06:20.310Z,35.06
2023-04-15T08:07:20.279Z,30.99
2023-04-15T08:08:20.277Z,35.64
2023-04-15T08:09:20.253Z,35.76
2023-04-15T08:10:20.275Z,34.52
2023-04-15T08:11:20.275Z,33.11
2023-04-15T08:12:20.229Z,27.95
2023-04-15T08:13:20.252Z,27.02
2023-04-15T08:14:20.209Z,25.75
2023-04-15T08:15:20.198Z,26.47
2023-04-15T08:16:20.250Z,25.25
2023-04-15T08:17:20.226Z,26.64
2023-04-15T08:18:20.178Z,27.15
2023-04-15T08:19:20.189Z,26.74
2023-04-15T08:20:20.187Z,31.36
2023-04-15T08:21:20.178Z,30.37
2023-04-15T08:22:21.317Z,34.24
2023-04-15T08:23:20.131Z,37.84
2023-04-15T08:24:20.150Z,36.19
2023-04-15T08:25:20.201Z,34.32
2023-04-15T08:26:20.143Z,34.69
2023-04-15T08:27:20.124Z,33.81
2023-04-15T08:28:20.130Z,34.13
2023-04-15T08:29:20.121Z,37.56
2023-04-15T08:30:20.293Z,37.52
2023-04-15T08:31:20.134Z,35.88
2023-04-15T08:32:20.143Z,35.94
2023-04-15T08:33:20.074Z,38.71
2023-04-15T08:34:20.056Z,34.46
2023-04-15T08:35:20.045Z,38.85
2023-04-15T08:36:20.062Z,38.66
2023-04-15T08:37:20.064Z,36.83
2023-04-15T08:38:20.046Z,40.93
2023-04-15T08:39:20.061Z,40.52
2023-04-15T08:40:20.054Z,38.81
2023-04-15T08:41:20.065Z,41.50
2023-04-15T08:42:20.035Z,39.62
2023-04-15T08:43:19.980Z,42.74
2023-04-15T08:44:20.001Z,41.85
2023-04-15T08:45:19.996Z,42.94
2023-04-15T08:46:20.035Z,43.60
2023-04-15T08:47:20.023Z,46.40
2023-04-15T08:48:19.983Z,46.36
2023-04-15T08:49:19.961Z,47.19
2023-04-15T08:50:19.944Z,46.27
2023-04-15T08:51:19.953Z,48.56
2023-04-15T08:52:19.951Z,50.40
2023-04-15T08:53:19.959Z,46.94
2023-04-15T08:54:19.914Z,47.97
2023-04-15T08:55:19.906Z,49.28
2023-04-15T08:56:19.935Z,50.40
2023-04-15T08:57:19.937Z,48.73
2023-04-15T08:58:19.911Z,50.74
2023-04-15T08:59:19.912Z,48.80
2023-04-15T09:00:19.894Z,50.94
2023-04-15T09:01:19.950Z,50.48
2023-04-15T09:02:20.008Z,44.50
2023-04-15T09:03:19.946Z,48.90
2023-04-15T09:04:20.093Z,46.14
2023-04-15T09:05:19.862Z,46.22
2023-04-15T09:06:19.833Z,41.13
2023-04-15T09:07:19.844Z,44.17
2023-04-15T09:08:19.885Z,47.01
2023-04-15T09:09:19.831Z,41.94
2023-04-15T09:10:19.802Z,43.35
2023-04-15T09:11:20.333Z,42.45
2023-04-15T09:12:19.814Z,43.43
2023-04-15T09:13:19.797Z,36.25
2023-04-15T09:14:19.801Z,37.67
2023-04-15T09:15:19.775Z,36.53
2023-04-15T09:16:19.820Z,39.12
2023-04-15T09:17:19.861Z,40.63
2023-04-15T09:18:19.754Z,39.74
2023-04-15T09:19:19.761Z,41.99
2023-04-15T09:20:19.762Z,41.64
2023-04-15T09:21:19.783Z,44.24
2023-04-15T09:22:19.775Z,44.34
2023-04-15T09:23:19.764Z,39.43
2023-04-15T09:24:19.747Z,39.05
2023-04-15T09:25:19.760Z,36.88
2023-04-15T09:26:19.772Z,36.38
2023-04-15T09:27:19.745Z,41.10
2023-04-15T09:28:19.755Z,36.75
2023-04-15T09:29:19.773Z,35.11
2023-04-15T09:30:19.789Z,35.61
2023-04-15T09:31:19.791Z,37.36
2023-04-15T09:32:19.756Z,34.41
2023-04-15T09:33:19.768Z,32.51
2023-04-15T09:34:19.750Z,31.82
2023-04-15T09:35:19.711Z,35.69
2023-04-15T09:36:19.721Z,37.48
2023-04-15T09:37:31.644Z,36.91
2023-04-15T09:38:20.733Z,36.97
2023-04-15T09:39:19.722Z,37.71
2023-04-15T09:40:19.698Z,38.56
2023-04-15T09:41:19.715Z,40.58
2023-04-15T09:42:19.723Z,43.59
2023-04-15T09:43:19.683Z,43.33
2023-04-15T09:44:19.687Z,40.70
2023-04-15T09:45:19.685Z,42.57
2023-04-15T09:46:19.701Z,41.25
2023-04-15T09:47:19.683Z,43.53
2023-04-15T09:48:19.645Z,45.90
2023-04-15T09:49:19.653Z,46.77
2023-04-15T09:50:19.644Z,47.61
2023-04-15T09:51:19.633Z,43.63
2023-04-15T09:52:19.657Z,45.20
2023-04-15T09:53:19.641Z,43.94
2023-04-15T09:54:19.638Z,44.84
2023-04-15T09:55:19.581Z,45.37
2023-04-15T09:56:19.620Z,44.83
2023-04-15T09:57:19.581Z,45.78
2023-04-15T09:58:19.561Z,46.28
2023-04-15T09:59:20.105Z,45.60
2023-04-15T10:00:19.608Z,46.02
2023-04-15T10:01:19.604Z,46.12
2023-04-15T10:02:19.724Z,44.29
2023-04-15T10:03:19.691Z,43.64
2023-04-15T10:04:19.689Z,44.51
2023-04-15T10:05:19.587Z,47.39
2023-04-15T10:06:19.546Z,47.98
2023-04-15T10:07:19.530Z,49.95
2023-04-15T10:08:19.510Z,49.89
2023-04-15T10:09:19.526Z,48.79
2023-04-15T10:10:19.508Z,43.35
2023-04-15T10:11:19.479Z,43.61
2023-04-15T10:12:19.512Z,45.13
2023-04-15T10:13:19.498Z,46.64
2023-04-15T10:14:19.474Z,42.65
2023-04-15T10:15:19.498Z,41.12
2023-04-15T10:16:19.579Z,43.13
2023-04-15T10:17:19.468Z,43.31
2023-04-15T10:18:19.459Z,45.04
2023-04-15T10:19:19.417Z,44.16
2023-04-15T10:20:19.437Z,40.51
2023-04-15T10:21:19.422Z,47.03
2023-04-15T10:22:19.428Z,46.51
2023-04-15T10:23:19.433Z,49.19
2023-04-15T10:24:19.378Z,48.51
2023-04-15T10:25:19.402Z,46.84
2023-04-15T10:26:19.355Z,51.02
2023-04-15T10:27:19.347Z,51.67
2023-04-15T10:28:19.365Z,47.51
2023-04-15T10:29:19.376Z,40.23
2023-04-15T10:30:19.324Z,42.16
2023-04-15T10:31:19.354Z,40.61
2023-04-15T10:32:19.376Z,36.41
2023-04-15T10:33:19.310Z,39.95
2023-04-15T10:34:19.296Z,39.35
2023-04-15T10:35:19.303Z,33.80
2023-04-15T10:36:19.287Z,36.29
2023-04-15T10:37:19.322Z,40.13
2023-04-15T10:38:19.320Z,40.11
2023-04-15T10:39:19.316Z,42.55
2023-04-15T10:40:19.336Z,34.98
2023-04-15T10:41:20.392Z,35.92
2023-04-15T10:42:19.334Z,35.07
2023-04-15T10:43:19.362Z,34.39
2023-04-15T10:44:19.359Z,31.83
2023-04-15T10:45:19.365Z,26.35
2023-04-15T10:46:19.332Z,27.58
2023-04-15T10:47:19.323Z,28.88
2023-04-15T10:48:19.332Z,30.77
2023-04-15T10:49:19.336Z,32.34
2023-04-15T10:50:19.321Z,33.50
2023-04-15T10:51:19.307Z,35.85
2023-04-15T10:52:19.310Z,35.35
2023-04-15T10:53:20.832Z,38.73
2023-04-15T10:54:19.344Z,39.73
2023-04-15T10:55:19.327Z,40.21
2023-04-15T10:56:19.325Z,37.37
2023-04-15T10:57:19.333Z,37.79
2023-04-15T10:58:19.331Z,39.35
2023-04-15T10:59:20.398Z,42.85
2023-04-15T11:00:19.450Z,41.86
2023-04-15T11:01:19.425Z,42.18
2023-04-15T11:02:19.571Z,45.80
2023-04-15T11:03:19.551Z,45.81
2023-04-15T11:04:19.501Z,47.60
2023-04-15T11:05:19.446Z,48.44
2023-04-15T11:06:19.416Z,48.52
2023-04-15T11:07:19.428Z,48.12
2023-04-15T11:08:19.404Z,43.10
2023-04-15T11:09:19.409Z,37.84
2023-04-15T11:10:19.410Z,40.66
2023-04-15T11:11:20.031Z,42.54
2023-04-15T11:12:19.414Z,42.16
2023-04-15T11:13:19.385Z,43.15
2023-04-15T11:14:19.416Z,37.09
2023-04-15T11:15:19.445Z,35.51
2023-04-15T11:16:19.475Z,35.17
2023-04-15T11:17:19.449Z,42.09
2023-04-15T11:18:19.437Z,41.35
2023-04-15T11:19:19.443Z,42.76
2023-04-15T11:20:19.484Z,43.14
2023-04-15T11:21:19.486Z,38.51
2023-04-15T11:22:19.442Z,35.33
2023-04-15T11:23:19.433Z,38.65
2023-04-15T11:24:19.498Z,39.75
2023-04-15T11:25:19.492Z,39.12
2023-04-15T11:26:19.480Z,39.56
2023-04-15T11:27:19.524Z,36.92
2023-04-15T11:28:19.507Z,37.53
2023-04-15T11:29:19.531Z,34.93
2023-04-15T11:30:19.555Z,35.85
2023-04-15T11:31:19.577Z,37.65
2023-04-15T11:32:19.651Z,40.78
2023-04-15T11:33:19.561Z,38.78
2023-04-15T11:34:19.603Z,40.85
2023-04-15T11:35:19.602Z,38.46
2023-04-15T11:36:19.605Z,38.91
2023-04-15T11:37:19.630Z,41.69
2023-04-15T11:38:19.662Z,39.81
2023-04-15T11:39:19.641Z,39.46
2023-04-15T11:40:19.652Z,38.63
2023-04-15T11:41:19.640Z,39.62
2023-04-15T11:42:19.654Z,39.69
2023-04-15T11:43:19.699Z,36.93
2023-04-15T11:44:19.658Z,40.00
2023-04-15T11:45:19.680Z,38.73
2023-04-15T11:46:19.797Z,41.63
2023-04-15T11:47:19.724Z,44.00
2023-04-15T11:48:19.712Z,43.36
2023-04-15T11:49:19.669Z,40.46
2023-04-15T11:50:19.664Z,42.52
2023-04-15T11:51:19.722Z,43.42
2023-04-15T11:52:19.722Z,43.81
2023-04-15T11:53:19.686Z,45.02
2023-04-15T11:54:19.693Z,46.02
2023-04-15T11:55:19.662Z,46.88
2023-04-15T11:56:19.749Z,46.41
2023-04-15T11:57:19.666Z,35.27
2023-04-15T11:58:19.656Z,32.06
2023-04-15T11:59:19.619Z,28.66
2023-04-15T12:00:19.674Z,31.24
2023-04-15T12:01:19.660Z,33.11
2023-04-15T12:02:19.751Z,33.95
2023-04-15T12:03:19.802Z,33.55
2023-04-15T12:04:23.227Z,33.81
2023-04-15T12:05:20.685Z,34.15
2023-04-15T12:06:19.764Z,34.50
2023-04-15T12:07:19.594Z,34.24
2023-04-15T12:08:19.676Z,36.56
2023-04-15T12:09:19.569Z,37.83
2023-04-15T12:10:19.579Z,26.09
2023-04-15T12:11:19.573Z,27.16
2023-04-15T12:12:19.541Z,28.20
2023-04-15T12:13:19.560Z,25.61
2023-04-15T12:14:19.554Z,26.45
2023-04-15T12:15:19.541Z,26.22
2023-04-15T12:16:19.635Z,28.02
2023-04-15T12:17:19.501Z,31.39
2023-04-15T12:18:19.519Z,28.36
2023-04-15T12:19:19.503Z,31.16
2023-04-15T12:20:19.497Z,33.68
2023-04-15T12:21:19.502Z,34.72
2023-04-15T12:22:19.497Z,36.96
2023-04-15T12:23:19.482Z,35.33
2023-04-15T12:24:19.444Z,35.06
2023-04-15T12:25:19.463Z,40.67
2023-04-15T12:26:19.460Z,40.44
2023-04-15T12:27:19.465Z,40.54
2023-04-15T12:28:19.451Z,37.07
2023-04-15T12:29:19.462Z,37.53
2023-04-15T12:30:19.416Z,38.87
2023-04-15T12:31:19.430Z,38.81
2023-04-15T12:32:19.461Z,39.32
2023-04-15T12:33:19.438Z,42.16
2023-04-15T12:34:19.387Z,43.29
2023-04-15T12:35:19.382Z,42.44
2023-04-15T12:36:19.403Z,44.24
2023-04-15T12:37:19.399Z,44.67
2023-04-15T12:38:19.397Z,46.86
2023-04-15T12:39:19.374Z,45.46
2023-04-15T12:40:19.425Z,45.42
2023-04-15T12:41:19.381Z,51.98
2023-04-15T12:42:19.388Z,51.60
2023-04-15T12:43:19.367Z,50.62
2023-04-15T12:44:19.363Z,49.20
2023-04-15T12:45:19.385Z,46.62
2023-04-15T12:46:19.392Z,48.73
2023-04-15T12:47:19.476Z,48.88
2023-04-15T12:48:19.343Z,53.76
2023-04-15T12:49:19.346Z,54.43
2023-04-15T12:50:19.373Z,54.52
2023-04-15T12:51:19.377Z,55.56
2023-04-15T12:52:19.389Z,57.86